createdAt,value
2019-01-12T00:00:58.086Z,5.87
2019-01-12T00:06:01.539Z,5.73
2019-01-12T00:11:07.642Z,5.80
2019-01-12T00:16:10.932Z,6.00
2019-01-12T00:21:14.328Z,6.30
2019-01-12T00:26:20.645Z,5.70
2019-01-12T00:31:25.278Z,5.80
2019-01-12T00:36:36.656Z,5.30
2019-01-12T00:41:40.135Z,5.73
2019-01-12T00:46:45.542Z,6.53
2019-01-12T00:51:52.079Z,5.80
2019-01-12T00:56:55.362Z,5.53
2019-01-12T01:01:58.751Z,7.60
2019-01-12T01:07:02.075Z,5.60
2019-01-12T01:12:11.464Z,5.43
2019-01-12T01:17:14.607Z,5.37
2019-01-12T01:22:18.045Z,5.53
2019-01-12T01:27:21.419Z,5.37
2019-01-12T01:32:24.692Z,4.93
2019-01-12T01:37:28.223Z,5.50
2019-01-12T01:42:31.678Z,5.70
2019-01-12T01:47:34.984Z,5.10
2019-01-12T01:52:41.289Z,4.60
2019-01-12T01:57:44.740Z,4.97
2019-01-12T02:02:48.032Z,4.93
2019-01-12T02:07:51.304Z,5.33
2019-01-12T02:12:57.599Z,4.80
2019-01-12T02:18:04.100Z,5.30
2019-01-12T02:23:07.404Z,4.97
2019-01-12T02:28:10.711Z,4.43
2019-01-12T02:33:14.110Z,3.90
2019-01-12T02:38:18.982Z,4.40
2019-01-12T02:43:23.797Z,4.60
2019-01-12T02:48:27.007Z,4.60
2019-01-12T02:53:29.845Z,5.30
2019-01-12T02:58:35.979Z,5.07
2019-01-12T03:03:39.294Z,4.87
2019-01-12T03:08:42.889Z,4.37
2019-01-12T03:13:46.200Z,5.03
2019-01-12T03:18:49.846Z,4.40
2019-01-12T03:23:53.335Z,4.43
2019-01-12T03:28:56.638Z,4.13
2019-01-12T03:34:00.126Z,4.53
2019-01-12T03:39:05.972Z,5.27
2019-01-12T03:44:09.362Z,4.73
2019-01-12T03:49:12.664Z,4.10
2019-01-12T03:54:16.133Z,4.50
2019-01-12T03:59:19.470Z,5.27
2019-01-12T04:04:25.591Z,5.00
2019-01-12T04:09:28.995Z,3.50
2019-01-12T04:14:35.064Z,4.83
2019-01-12T04:19:38.525Z,3.53
2019-01-12T04:24:41.962Z,3.43
2019-01-12T04:29:45.582Z,3.20
2019-01-12T04:34:48.884Z,2.17
2019-01-12T04:39:52.232Z,2.00
2019-01-12T04:44:55.606Z,1.73
2019-01-12T04:49:59.100Z,1.40
2019-01-12T04:55:02.396Z,2.17
2019-01-12T05:00:07.161Z,1.90
2019-01-12T05:05:10.725Z,1.93
2019-01-12T05:10:14.252Z,2.17
2019-01-12T05:15:23.568Z,2.23
2019-01-12T05:20:29.015Z,2.00
2019-01-12T05:25:32.438Z,1.97
2019-01-12T05:30:44.655Z,2.00
2019-01-12T05:35:48.697Z,2.00
2019-01-12T05:40:51.999Z,2.60
2019-01-12T05:45:55.479Z,2.30
2019-01-12T05:51:01.996Z,2.47
2019-01-12T05:56:05.686Z,2.43
2019-01-12T06:01:09.300Z,2.10
2019-01-12T06:06:12.718Z,1.80
2019-01-12T06:11:16.128Z,1.40
2019-01-12T06:16:22.489Z,1.40
2019-01-12T06:21:26.953Z,1.37
2019-01-12T06:26:30.257Z,1.83
2019-01-12T06:31:33.703Z,2.40
2019-01-12T06:36:37.134Z,2.80
2019-01-12T06:41:40.495Z,3.33
2019-01-12T06:46:44.014Z,3.80
2019-01-12T06:51:47.354Z,4.43
2019-01-12T06:56:51.042Z,3.77
2019-01-12T07:01:54.298Z,3.40
2019-01-12T07:06:58.133Z,3.07
2019-01-12T07:12:02.997Z,3.07
2019-01-12T07:17:06.556Z,3.00
2019-01-12T07:22:10.001Z,3.23
2019-01-12T07:27:13.566Z,2.80
2019-01-12T07:32:17.085Z,2.63
2019-01-12T07:37:20.586Z,2.60
2019-01-12T07:42:24.112Z,2.30
2019-01-12T07:47:27.674Z,2.40
2019-01-12T07:52:32.661Z,2.90
2019-01-12T07:57:36.048Z,3.23
2019-01-12T08:02:39.604Z,2.60
2019-01-12T08:07:42.947Z,2.37
2019-01-12T08:12:46.530Z,2.50
2019-01-12T08:17:50.112Z,2.10
2019-01-12T08:22:53.743Z,2.00
2019-01-12T08:27:57.336Z,2.00
2019-01-12T08:33:00.898Z,2.47
2019-01-12T08:38:04.421Z,2.20
2019-01-12T08:43:07.819Z,1.90
2019-01-12T08:48:17.146Z,2.10
2019-01-12T08:53:20.559Z,1.83
2019-01-12T08:58:24.108Z,3.00
2019-01-12T09:03:27.679Z,3.40
2019-01-12T09:08:31.009Z,2.17
2019-01-12T09:13:34.474Z,3.07
2019-01-12T09:18:37.719Z,3.20
2019-01-12T09:23:41.202Z,3.80
2019-01-12T09:28:44.529Z,3.10
2019-01-12T09:33:48.200Z,2.60
2019-01-12T09:38:51.455Z,2.93
2019-01-12T09:43:54.792Z,2.77
2019-01-12T09:48:58.395Z,2.63
2019-01-12T09:54:01.954Z,2.50
2019-01-12T09:59:05.473Z,2.20
2019-01-12T10:04:09.292Z,2.60
2019-01-12T10:09:12.807Z,2.67
2019-01-12T10:14:16.296Z,2.83
2019-01-12T10:19:19.736Z,3.40
2019-01-12T10:24:23.202Z,3.80
2019-01-12T10:29:27.107Z,4.00
2019-01-12T10:34:32.665Z,3.90
2019-01-12T10:39:35.533Z,3.67
2019-01-12T10:44:39.012Z,4.23
2019-01-12T10:49:42.954Z,4.53
2019-01-12T10:54:46.534Z,4.80
2019-01-12T10:59:51.147Z,6.30
2019-01-12T11:04:54.851Z,6.67
2019-01-12T11:10:03.953Z,9.10
2019-01-12T11:15:03.369Z,8.67
2019-01-12T11:20:07.033Z,9.07
2019-01-12T11:25:11.120Z,9.30
2019-01-12T11:30:16.085Z,9.60
2019-01-12T11:35:18.922Z,10.83
2019-01-12T11:40:21.778Z,10.30
2019-01-12T11:45:28.130Z,11.10
2019-01-12T11:50:31.561Z,11.73
2019-01-12T11:55:34.956Z,13.13
2019-01-12T12:00:38.568Z,15.00
2019-01-12T12:05:41.976Z,14.53
2019-01-12T12:10:45.421Z,16.40
2019-01-12T12:15:48.844Z,15.97
2019-01-12T12:20:52.252Z,16.40
2019-01-12T12:25:55.907Z,16.63
2019-01-12T12:30:59.417Z,15.80
2019-01-12T12:36:03.037Z,15.50
2019-01-12T12:41:05.886Z,13.77
2019-01-12T12:46:08.862Z,14.67
2019-01-12T12:51:11.728Z,13.33
2019-01-12T12:56:14.562Z,12.00
2019-01-12T13:01:17.394Z,11.90
2019-01-12T13:06:20.203Z,11.73
2019-01-12T13:11:23.084Z,11.87
2019-01-12T13:16:26.506Z,12.47
2019-01-12T13:21:31.457Z,10.73
2019-01-12T13:31:51.464Z,9.23
2019-01-12T13:37:04.455Z,7.20
2019-01-12T13:42:13.338Z,6.30
2019-01-12T13:47:20.753Z,5.20
2019-01-12T13:52:21.329Z,4.60
2019-01-12T13:57:24.777Z,5.30
2019-01-12T14:02:28.090Z,4.43
2019-01-12T14:07:31.531Z,4.57
2019-01-12T14:12:34.920Z,4.53
2019-01-12T14:17:38.356Z,3.50
2019-01-12T14:22:41.662Z,2.73
2019-01-12T14:27:44.912Z,2.20
2019-01-12T14:32:48.325Z,2.20
2019-01-12T14:37:53.829Z,2.07
2019-01-12T14:42:57.080Z,2.00
2019-01-12T14:48:00.415Z,2.63
2019-01-12T14:53:03.669Z,2.90
2019-01-12T14:58:07.295Z,3.17
2019-01-12T15:03:10.650Z,3.10
2019-01-12T15:08:14.019Z,4.30
2019-01-12T15:13:18.405Z,3.33
2019-01-12T15:18:21.971Z,4.00
2019-01-12T15:23:34.940Z,3.47
2019-01-12T15:28:38.290Z,3.50
2019-01-12T15:33:41.615Z,3.57
2019-01-12T15:38:45.479Z,4.03
2019-01-12T15:43:48.683Z,3.73
2019-01-12T15:48:52.008Z,4.07
2019-01-12T15:53:55.684Z,2.97
2019-01-12T15:58:59.653Z,3.10
2019-01-12T16:04:03.123Z,3.20
2019-01-12T16:09:07.800Z,3.57
2019-01-12T16:14:11.311Z,2.80
2019-01-12T16:19:14.646Z,3.90
2019-01-12T16:24:17.924Z,3.20
2019-01-12T16:29:24.178Z,2.93
2019-01-12T16:34:27.112Z,2.50
2019-01-12T16:39:30.331Z,3.00
2019-01-12T16:44:33.754Z,3.00
2019-01-12T16:49:37.144Z,2.70
2019-01-12T16:54:46.520Z,3.43
2019-01-12T16:59:49.877Z,4.40
2019-01-12T17:04:53.217Z,4.27
2019-01-12T17:09:59.980Z,3.23
2019-01-12T17:15:03.410Z,3.40
2019-01-12T17:20:08.855Z,3.00
2019-01-12T17:25:12.132Z,3.77
2019-01-12T17:30:17.322Z,3.57
2019-01-12T17:35:21.692Z,5.27
2019-01-12T17:40:27.862Z,3.80
2019-01-12T17:45:31.137Z,3.30
2019-01-12T17:50:34.347Z,3.80
2019-01-12T17:55:37.149Z,3.93
2019-01-12T18:00:47.899Z,5.57
2019-01-12T18:05:51.590Z,4.63
2019-01-12T18:10:54.944Z,4.43
2019-01-12T18:15:58.475Z,4.77
2019-01-12T18:21:01.790Z,3.70
2019-01-12T18:26:05.132Z,3.80
2019-01-12T18:31:08.430Z,4.00
2019-01-12T18:36:11.966Z,4.20
2019-01-12T18:41:15.477Z,3.80
2019-01-12T18:46:18.957Z,2.90
2019-01-12T18:51:22.306Z,3.40
2019-01-12T18:56:25.602Z,3.30
2019-01-12T19:01:30.938Z,3.57
2019-01-12T19:06:35.827Z,3.30
2019-01-12T19:11:40.367Z,5.57
2019-01-12T19:16:46.599Z,3.93
2019-01-12T19:21:49.862Z,4.47
2019-01-12T19:26:53.162Z,4.10
2019-01-12T19:31:56.740Z,3.90
2019-01-12T19:37:00.115Z,3.77
2019-01-12T19:42:06.296Z,4.00
2019-01-12T19:47:12.502Z,3.30
2019-01-12T19:52:15.846Z,3.90
2019-01-12T19:57:19.018Z,5.40
2019-01-12T20:02:25.402Z,3.50
2019-01-12T20:07:28.764Z,3.83
2019-01-12T20:12:31.605Z,3.00
2019-01-12T20:17:35.026Z,3.57
2019-01-12T20:22:38.594Z,4.30
2019-01-12T20:27:46.672Z,3.53
2019-01-12T20:33:19.684Z,3.00
2019-01-12T20:38:48.449Z,3.50
2019-01-12T20:44:44.495Z,2.77
2019-01-12T20:50:12.921Z,2.73
2019-01-12T20:56:04.053Z,2.80
2019-01-12T21:01:50.615Z,2.50
2019-01-12T21:07:39.664Z,2.20
2019-01-12T21:13:21.473Z,2.10
2019-01-12T21:18:24.684Z,1.97
2019-01-12T21:23:27.954Z,2.07
2019-01-12T21:28:31.350Z,2.10
2019-01-12T21:33:34.546Z,2.17
2019-01-12T21:43:48.506Z,1.23
2019-01-12T21:48:51.638Z,2.20
2019-01-12T21:53:54.971Z,1.50
2019-01-12T21:58:58.306Z,1.10
2019-01-12T22:04:01.482Z,2.00
2019-01-12T22:09:14.712Z,1.33
2019-01-12T22:14:18.194Z,1.27
2019-01-12T22:19:21.239Z,1.43
2019-01-12T22:24:24.713Z,1.43
2019-01-12T22:29:27.989Z,1.40
2019-01-12T22:34:31.407Z,1.00
2019-01-12T22:39:34.787Z,1.77
2019-01-12T22:44:40.963Z,1.67
2019-01-12T22:49:44.267Z,1.57
2019-01-12T22:54:47.522Z,3.00
2019-01-12T22:59:56.971Z,1.00
2019-01-12T23:04:59.535Z,1.27
2019-01-12T23:10:06.795Z,1.67
2019-01-12T23:15:14.657Z,1.10
2019-01-12T23:20:21.123Z,1.00
2019-01-12T23:25:24.361Z,2.10
2019-01-12T23:30:27.924Z,2.37
2019-01-12T23:35:31.438Z,3.03
2019-01-12T23:40:36.326Z,2.77
2019-01-12T23:45:41.685Z,3.60
2019-01-12T23:50:45.154Z,2.77
2019-01-12T23:55:50.515Z,3.07
